Time;durP1;ratioP1;P1;durP2;ratioP2;P2;SDS_P1;SDS_P2;PMS_P1;PMS_P2;Temp;Humidity;BMP_temperature;BMP_pressure;BME280_temperature;BME280_humidity;BME280_pressure;Samples;Min_cycle;Max_cycle;Signal;HPM_P1;HPM_P2
2021/07/19 00:02:27;;;;;;;7.63;5.53;;;;;;;15.62;100.00;101676.44;5084924;28;20222;-66
2021/07/19 00:04:56;;;;;;;8.98;5.82;;;;;;;15.53;100.00;101670.25;5082566;28;20063;-65
2021/07/19 00:07:24;;;;;;;8.10;5.50;;;;;;;15.44;100.00;101664.06;5082343;28;20040;-65
2021/07/19 00:09:52;;;;;;;10.75;6.00;;;;;;;15.46;100.00;101664.72;5082017;28;20332;-64
2021/07/19 00:12:20;;;;;;;9.63;6.13;;;;;;;15.45;100.00;101665.75;5084875;28;20309;-64
2021/07/19 00:14:49;;;;;;;11.70;5.90;;;;;;;15.42;100.00;101665.25;5083161;28;20074;-64
2021/07/19 00:17:19;;;;;;;11.80;6.88;;;;;;;15.71;100.00;101663.78;5082430;28;20040;-64
2021/07/19 00:19:48;;;;;;;11.85;6.40;;;;;;;15.54;100.00;101657.66;5082758;28;20123;-65
2021/07/19 00:22:18;;;;;;;10.60;5.63;;;;;;;15.56;100.00;101653.75;5080326;28;20049;-64
2021/07/19 00:24:46;;;;;;;9.48;6.07;;;;;;;15.55;100.00;101656.63;5082979;28;20056;-64
2021/07/19 00:27:15;;;;;;;9.02;6.47;;;;;;;15.48;100.00;101654.63;5083840;28;20049;-65
2021/07/19 00:29:43;;;;;;;11.05;6.32;;;;;;;15.42;100.00;101652.66;5086139;28;20044;-66
2021/07/19 00:32:11;;;;;;;10.65;6.15;;;;;;;15.49;100.00;101653.63;5077912;28;20079;-65
2021/07/19 00:34:39;;;;;;;10.15;6.03;;;;;;;15.53;100.00;101659.47;5082466;28;20102;-65
2021/07/19 00:37:07;;;;;;;10.55;7.15;;;;;;;15.35;100.00;101664.28;5080774;28;20044;-64
2021/07/19 00:39:36;;;;;;;10.38;6.93;;;;;;;15.29;100.00;101660.44;5084296;28;20032;-64
2021/07/19 00:42:04;;;;;;;9.10;6.70;;;;;;;15.19;100.00;101665.19;5086879;28;20048;-65
2021/07/19 00:44:32;;;;;;;12.60;7.07;;;;;;;15.09;100.00;101663.50;5083228;28;20048;-64
2021/07/19 00:47:00;;;;;;;10.63;5.95;;;;;;;15.03;100.00;101666.91;5086104;28;20040;-65
2021/07/19 00:49:32;;;;;;;10.65;6.50;;;;;;;15.09;100.00;101666.19;5084015;28;20413;-65
2021/07/19 00:52:01;;;;;;;12.52;7.20;;;;;;;15.25;100.00;101665.34;5081470;28;20506;-64
2021/07/19 00:54:31;;;;;;;11.00;7.13;;;;;;;15.12;100.00;101668.53;5084087;28;20431;-65
2021/07/19 00:57:02;;;;;;;12.20;6.95;;;;;;;15.06;100.00;101671.09;5081018;28;20052;-64
2021/07/19 00:59:33;;;;;;;10.80;7.03;;;;;;;14.97;100.00;101668.44;5084123;28;20028;-64
2021/07/19 01:02:03;;;;;;;13.38;7.95;;;;;;;15.04;100.00;101665.03;5078572;28;20199;-64
2021/07/19 01:04:32;;;;;;;12.93;7.20;;;;;;;14.88;100.00;101661.38;5082088;28;20054;-64
2021/07/19 01:07:03;;;;;;;12.98;8.80;;;;;;;14.94;100.00;101667.91;5087160;28;20060;-64
2021/07/19 01:09:32;;;;;;;13.77;7.93;;;;;;;14.91;100.00;101663.75;5079195;28;20036;-64
2021/07/19 01:12:02;;;;;;;12.35;7.03;;;;;;;14.84;100.00;101661.88;5078047;28;20041;-64
2021/07/19 01:14:30;;;;;;;11.20;6.82;;;;;;;14.79;100.00;101671.31;5082993;28;20487;-64
2021/07/19 01:16:58;;;;;;;12.57;7.60;;;;;;;14.72;100.00;101659.56;5082397;28;20051;-64
2021/07/19 01:19:30;;;;;;;16.85;8.52;;;;;;;14.69;100.00;101667.97;5081556;28;20529;-64
2021/07/19 01:22:33;;;;;;;16.58;8.68;;;;;;;14.77;100.00;101664.41;5080420;28;20047;-64
2021/07/19 01:25:10;;;;;;;11.93;7.63;;;;;;;14.61;100.00;101657.19;5059361;28;20059;-63
2021/07/19 01:28:02;;;;;;;13.85;8.23;;;;;;;14.66;100.00;101660.25;5085813;28;20047;-65
2021/07/19 01:30:33;;;;;;;14.52;7.82;;;;;;;14.65;100.00;101658.56;5079167;28;20043;-64
2021/07/19 01:33:03;;;;;;;16.60;8.35;;;;;;;14.65;100.00;101653.19;5083495;28;20471;-65
2021/07/19 01:35:32;;;;;;;18.83;9.70;;;;;;;14.95;100.00;101653.47;5082632;28;20090;-65
2021/07/19 01:38:00;;;;;;;14.88;8.40;;;;;;;14.86;100.00;101649.13;5080043;28;20055;-65
2021/07/19 01:40:28;;;;;;;14.30;8.48;;;;;;;14.74;100.00;101657.56;5079798;28;20054;-66
2021/07/19 01:42:56;;;;;;;20.63;11.95;;;;;;;15.06;100.00;101646.91;5081579;28;20420;-66
2021/07/19 01:45:25;;;;;;;21.00;10.93;;;;;;;15.04;100.00;101655.13;5086396;28;20479;-67
2021/07/19 01:47:54;;;;;;;20.27;10.57;;;;;;;15.04;100.00;101657.81;5079212;28;20043;-66
2021/07/19 01:50:22;;;;;;;20.60;11.93;;;;;;;15.11;100.00;101650.75;5079260;28;20105;-64
2021/07/19 01:52:51;;;;;;;19.35;11.38;;;;;;;15.14;100.00;101655.78;5080876;28;20044;-65
2021/07/19 01:55:19;;;;;;;22.15;11.55;;;;;;;15.22;100.00;101652.19;5081262;28;20051;-66
2021/07/19 01:57:47;;;;;;;22.77;11.60;;;;;;;15.18;100.00;101658.94;5082808;28;20336;-65
2021/07/19 02:00:15;;;;;;;20.85;11.82;;;;;;;15.20;100.00;101654.25;5083206;28;20096;-65
2021/07/19 02:02:43;;;;;;;22.10;10.52;;;;;;;15.17;100.00;101653.72;5082962;28;20064;-66
2021/07/19 02:05:14;;;;;;;21.58;12.13;;;;;;;15.14;100.00;101654.94;5084652;28;20044;-64
2021/07/19 02:07:42;;;;;;;23.58;11.82;;;;;;;15.25;100.00;101654.56;5080819;28;20312;-65
2021/07/19 02:10:11;;;;;;;21.77;11.93;;;;;;;15.27;100.00;101659.78;5080181;28;20045;-64
2021/07/19 02:12:39;;;;;;;23.67;12.40;;;;;;;15.23;100.00;101656.59;5075203;28;20205;-64
2021/07/19 02:15:11;;;;;;;23.42;12.32;;;;;;;15.26;100.00;101655.41;5081590;28;20508;-65
2021/07/19 02:17:39;;;;;;;23.40;11.25;;;;;;;15.35;100.00;101654.34;5081578;28;20040;-65
2021/07/19 02:20:08;;;;;;;20.98;11.55;;;;;;;15.31;100.00;101655.72;5081016;28;20101;-65
2021/07/19 02:22:39;;;;;;;23.80;11.75;;;;;;;15.19;100.00;101662.50;5078180;28;20055;-65
2021/07/19 02:25:08;;;;;;;21.48;10.75;;;;;;;15.02;100.00;101656.31;5078816;28;20086;-65
2021/07/19 02:27:38;;;;;;;20.08;10.23;;;;;;;15.23;100.00;101655.75;5078017;28;20132;-65
2021/07/19 02:30:07;;;;;;;18.83;10.13;;;;;;;15.25;100.00;101656.41;5080992;28;20317;-66
2021/07/19 02:32:36;;;;;;;19.08;10.88;;;;;;;15.21;100.00;101652.38;5081040;28;20047;-65
2021/07/19 02:35:06;;;;;;;18.00;10.80;;;;;;;15.14;100.00;101658.47;5080301;28;20048;-65
2021/07/19 02:37:37;;;;;;;20.30;10.98;;;;;;;15.13;100.00;101667.53;5081460;28;20051;-65
2021/07/19 02:40:08;;;;;;;21.20;10.77;;;;;;;15.13;100.00;101662.16;5081273;28;20336;-66
2021/07/19 02:42:36;;;;;;;20.50;10.27;;;;;;;14.99;100.00;101665.56;5082747;28;20073;-65
2021/07/19 02:45:06;;;;;;;21.27;10.90;;;;;;;14.99;100.00;101670.94;5078282;28;20039;-67
2021/07/19 02:47:34;;;;;;;23.00;11.35;;;;;;;15.01;100.00;101652.78;5082161;28;20098;-66
2021/07/19 02:50:02;;;;;;;21.75;11.77;;;;;;;14.94;100.00;101660.72;5081166;28;20139;-66
2021/07/19 02:52:31;;;;;;;26.25;12.65;;;;;;;14.99;100.00;101670.94;5078694;28;20040;-66
2021/07/19 02:55:00;;;;;;;26.20;14.38;;;;;;;14.84;100.00;101668.09;5080532;28;20115;-65
2021/07/19 02:57:28;;;;;;;21.30;11.43;;;;;;;14.85;100.00;101669.78;5077504;28;20110;-65
2021/07/19 02:59:58;;;;;;;26.90;12.32;;;;;;;14.76;100.00;101666.28;5077746;28;20380;-65
2021/07/19 03:02:26;;;;;;;24.35;12.60;;;;;;;14.69;100.00;101662.59;5078396;28;20312;-65
2021/07/19 03:04:56;;;;;;;25.17;12.45;;;;;;;14.74;100.00;101668.31;5085468;28;20044;-65
2021/07/19 03:07:25;;;;;;;27.38;13.73;;;;;;;14.68;100.00;101674.34;5087587;28;20040;-66
2021/07/19 03:09:56;;;;;;;24.02;11.52;;;;;;;14.58;100.00;101665.59;5083636;28;20040;-66
2021/07/19 03:12:26;;;;;;;21.95;11.20;;;;;;;14.55;100.00;101668.63;5083111;28;20055;-66
2021/07/19 03:14:54;;;;;;;24.92;12.00;;;;;;;14.51;100.00;101656.53;5083660;28;20319;-65
2021/07/19 03:17:23;;;;;;;27.70;12.23;;;;;;;14.63;100.00;101647.16;5086923;28;20102;-64
2021/07/19 03:19:52;;;;;;;24.90;11.48;;;;;;;14.67;100.00;101645.78;5083475;28;20066;-66
2021/07/19 03:22:21;;;;;;;28.20;14.27;;;;;;;14.73;100.00;101658.56;5083978;28;20433;-67
2021/07/19 03:24:50;;;;;;;29.45;13.25;;;;;;;14.78;100.00;101652.66;5085757;28;20334;-66
2021/07/19 03:27:18;;;;;;;28.50;14.82;;;;;;;14.87;100.00;101654.34;5082735;28;20044;-67
2021/07/19 03:29:47;;;;;;;33.40;14.52;;;;;;;14.71;100.00;101649.81;5085525;28;20048;-66
2021/07/19 03:32:16;;;;;;;27.50;13.50;;;;;;;14.89;100.00;101648.78;5083591;28;20044;-66
2021/07/19 03:34:44;;;;;;;26.83;13.45;;;;;;;14.92;100.00;101653.81;5085290;28;20055;-66
2021/07/19 03:37:13;;;;;;;34.42;15.35;;;;;;;14.83;100.00;101649.44;5081025;28;20051;-66
2021/07/19 03:39:42;;;;;;;27.55;14.30;;;;;;;14.72;100.00;101646.13;5081757;28;20500;-64
2021/07/19 03:42:12;;;;;;;31.10;14.70;;;;;;;14.81;100.00;101641.56;5084012;28;20304;-64
2021/07/19 03:44:40;;;;;;;28.95;13.65;;;;;;;14.84;100.00;101651.97;5086418;28;20040;-64
2021/07/19 03:47:12;;;;;;;30.25;14.45;;;;;;;14.72;100.00;101650.66;5081406;28;20094;-65
2021/07/19 03:49:41;;;;;;;28.58;13.40;;;;;;;14.68;100.00;101647.47;5084595;28;20085;-65
2021/07/19 03:52:10;;;;;;;27.63;14.15;;;;;;;14.94;100.00;101646.41;5080669;28;20424;-64
2021/07/19 03:54:37;;;;;;;30.27;14.98;;;;;;;14.93;100.00;101645.56;5081261;28;20040;-65
2021/07/19 03:57:06;;;;;;;28.38;14.27;;;;;;;14.82;100.00;101643.25;5083757;28;20097;-65
2021/07/19 03:59:34;;;;;;;33.00;14.95;;;;;;;14.71;100.00;101646.28;5083355;28;20040;-65
2021/07/19 04:02:09;;;;;;;41.70;16.77;;;;;;;14.67;100.00;101645.78;5081187;28;20505;-65
2021/07/19 04:04:41;;;;;;;29.30;14.73;;;;;;;14.57;100.00;101645.94;5083203;28;20270;-65
2021/07/19 04:07:10;;;;;;;33.38;14.32;;;;;;;14.55;100.00;101647.13;5084240;28;20043;-65
2021/07/19 04:09:38;;;;;;;28.70;14.40;;;;;;;14.31;100.00;101648.78;5085313;28;20109;-65
2021/07/19 04:12:08;;;;;;;21.70;11.02;;;;;;;14.31;100.00;101648.78;5082233;28;20085;-65
2021/07/19 04:14:37;;;;;;;19.58;9.25;;;;;;;14.13;100.00;101643.56;5085377;28;20102;-65
2021/07/19 04:17:05;;;;;;;19.50;9.30;;;;;;;13.93;100.00;101637.69;5274251;22;20023;-66
2021/07/19 04:19:34;;;;;;;25.10;11.55;;;;;;;13.87;100.00;101641.88;5018033;28;20064;-65
2021/07/19 04:22:04;;;;;;;30.63;13.77;;;;;;;14.37;100.00;101645.44;5021635;28;20045;-66
2021/07/19 04:24:34;;;;;;;27.60;14.02;;;;;;;14.54;100.00;101637.38;5029214;28;20428;-66
2021/07/19 04:27:02;;;;;;;38.67;15.15;;;;;;;14.70;100.00;101636.53;5019315;28;20042;-66
2021/07/19 04:29:30;;;;;;;34.53;17.88;;;;;;;14.83;100.00;101636.00;5020627;28;20348;-66
2021/07/19 04:32:02;;;;;;;32.92;16.58;;;;;;;15.02;100.00;101632.94;5017604;28;20037;-66
2021/07/19 04:34:31;;;;;;;37.22;17.08;;;;;;;15.16;100.00;101628.69;5021322;28;20067;-65
2021/07/19 04:37:00;;;;;;;34.65;17.38;;;;;;;15.03;100.00;101631.94;5019874;28;20041;-65
2021/07/19 04:39:30;;;;;;;35.28;17.20;;;;;;;15.12;100.00;101632.75;5023837;28;20440;-66
2021/07/19 04:42:02;;;;;;;35.33;16.52;;;;;;;15.08;100.00;101632.28;5019954;28;20034;-65
2021/07/19 04:44:30;;;;;;;38.70;16.95;;;;;;;15.10;100.00;101635.59;5025675;28;20037;-66
2021/07/19 04:46:58;;;;;;;28.63;14.30;;;;;;;15.23;100.00;101636.91;5021929;28;20045;-66
2021/07/19 04:49:27;;;;;;;34.50;15.77;;;;;;;15.20;100.00;101637.28;5018030;28;20053;-66
2021/07/19 04:51:56;;;;;;;29.38;16.65;;;;;;;15.19;100.00;101632.91;5021722;28;20049;-66
2021/07/19 04:54:26;;;;;;;32.58;16.38;;;;;;;15.13;100.00;101635.25;5018155;28;20045;-66
2021/07/19 04:56:57;;;;;;;31.13;16.95;;;;;;;15.14;100.00;101633.44;5024261;28;20048;-66
2021/07/19 04:59:28;;;;;;;26.13;13.82;;;;;;;15.00;100.00;101644.88;5023916;28;20121;-65
2021/07/19 05:01:56;;;;;;;34.35;15.38;;;;;;;15.09;100.00;101644.69;5017570;28;20049;-66
2021/07/19 05:04:25;;;;;;;27.58;13.82;;;;;;;15.17;100.00;101642.97;5020207;28;20128;-66
2021/07/19 05:06:56;;;;;;;24.80;13.32;;;;;;;15.17;100.00;101642.97;5022169;28;20041;-65
2021/07/19 05:09:24;;;;;;;29.92;14.77;;;;;;;15.19;100.00;101640.97;5018336;28;20333;-65
2021/07/19 05:11:52;;;;;;;26.63;14.00;;;;;;;15.31;100.00;101639.59;5015915;28;20049;-66
2021/07/19 05:14:22;;;;;;;31.65;14.60;;;;;;;15.45;100.00;101649.63;5018459;28;20088;-65
2021/07/19 05:16:51;;;;;;;28.95;15.00;;;;;;;15.53;100.00;101648.72;5019371;28;20056;-65
2021/07/19 05:19:20;;;;;;;28.17;13.55;;;;;;;15.46;100.00;101642.38;5016031;28;20041;-65
2021/07/19 05:21:47;;;;;;;27.10;13.93;;;;;;;15.63;100.00;101648.50;5018788;28;20053;-65
2021/07/19 05:24:16;;;;;;;29.40;14.63;;;;;;;15.64;100.00;101648.31;5015781;28;20038;-65
2021/07/19 05:26:45;;;;;;;23.85;13.20;;;;;;;15.71;100.00;101643.09;5018565;28;20053;-65
2021/07/19 05:29:13;;;;;;;26.50;13.68;;;;;;;15.61;100.00;101647.84;5024674;28;20069;-65
2021/07/19 05:31:42;;;;;;;29.77;14.60;;;;;;;15.67;100.00;101642.59;5020066;28;20054;-65
2021/07/19 05:34:10;;;;;;;24.08;13.57;;;;;;;15.77;100.00;101646.91;5016160;28;20038;-65
2021/07/19 05:36:38;;;;;;;24.30;12.48;;;;;;;16.02;100.00;101647.63;5026101;28;20042;-65
2021/07/19 05:39:06;;;;;;;26.20;13.05;;;;;;;16.21;100.00;101640.91;5016097;28;20053;-64
2021/07/19 05:41:34;;;;;;;23.05;12.80;;;;;;;16.35;100.00;101639.31;5026028;28;20037;-65
2021/07/19 05:44:02;;;;;;;25.05;12.98;;;;;;;16.22;100.00;101639.06;5016532;28;20046;-65
2021/07/19 05:46:29;;;;;;;21.88;11.27;;;;;;;16.42;100.00;101634.03;5020171;28;20049;-65
2021/07/19 05:48:59;;;;;;;21.00;11.80;;;;;;;16.58;100.00;101633.03;5018635;28;20045;-65
2021/07/19 05:51:27;;;;;;;23.25;9.82;;;;;;;16.90;100.00;101636.44;5019019;28;20041;-65
2021/07/19 05:53:55;;;;;;;19.05;11.32;;;;;;;17.17;100.00;101637.66;5016318;28;20045;-65
2021/07/19 05:56:23;;;;;;;15.52;9.90;;;;;;;17.93;100.00;101620.28;5012260;28;20050;-65
2021/07/19 05:58:51;;;;;;;18.85;11.00;;;;;;;18.08;100.00;101618.38;5014903;28;20052;-65
2021/07/19 06:01:19;;;;;;;14.68;9.02;;;;;;;19.06;100.00;101629.31;5018405;28;20050;-65
2021/07/19 06:03:47;;;;;;;19.20;10.00;;;;;;;19.66;100.00;101614.34;5012850;28;20492;-65
2021/07/19 06:06:16;;;;;;;14.70;9.30;;;;;;;19.38;100.00;101607.19;5024898;28;20072;-65
2021/07/19 06:08:44;;;;;;;13.93;8.65;;;;;;;20.12;100.00;101611.75;5020457;28;20049;-65
2021/07/19 06:11:12;;;;;;;13.90;8.90;;;;;;;20.49;100.00;101603.19;5020847;28;20078;-65
2021/07/19 06:13:40;;;;;;;17.67;9.88;;;;;;;20.28;100.00;101605.06;5020206;28;20045;-65
2021/07/19 06:16:09;;;;;;;14.15;8.52;;;;;;;20.00;100.00;101609.88;5012900;28;20400;-65
2021/07/19 06:18:37;;;;;;;13.85;8.23;;;;;;;20.47;100.00;101610.72;5017969;28;20068;-65
2021/07/19 06:21:24;;;;;;;18.33;8.77;;;;;;;21.46;100.00;101608.81;5016775;28;20092;-66
2021/07/19 06:23:54;;;;;;;15.18;9.07;;;;;;;21.44;100.00;101610.88;5016918;28;20050;-65
2021/07/19 06:26:21;;;;;;;13.57;8.13;;;;;;;21.64;100.00;101601.84;5020185;28;20049;-65
2021/07/19 06:28:49;;;;;;;14.18;8.15;;;;;;;21.46;100.00;101600.66;5023144;28;20448;-65
2021/07/19 06:31:17;;;;;;;15.27;8.25;;;;;;;21.30;100.00;101593.81;5014411;28;20037;-64
2021/07/19 06:33:45;;;;;;;15.15;9.10;;;;;;;21.20;100.00;101598.88;5017666;28;20065;-64
2021/07/19 06:36:13;;;;;;;12.73;8.55;;;;;;;21.32;100.00;101596.31;5018552;28;20413;-64
2021/07/19 06:38:41;;;;;;;12.23;7.95;;;;;;;21.95;100.00;101594.75;5023887;28;20054;-65
2021/07/19 06:41:12;;;;;;;14.98;8.55;;;;;;;22.31;100.00;101594.03;5022684;28;20306;-64
2021/07/19 06:43:41;;;;;;;12.02;8.85;;;;;;;22.09;100.00;101595.47;5020733;28;20091;-64
2021/07/19 06:46:08;;;;;;;17.90;9.02;;;;;;;22.11;100.00;101596.91;5021806;28;20080;-65
2021/07/19 06:48:37;;;;;;;14.20;8.70;;;;;;;22.61;100.00;101596.09;5021721;28;20077;-64
2021/07/19 06:51:09;;;;;;;12.32;7.50;;;;;;;22.09;100.00;101598.19;5022374;28;20084;-64
2021/07/19 06:53:37;;;;;;;15.13;8.70;;;;;;;21.74;100.00;101593.22;5023195;28;20448;-65
2021/07/19 06:56:05;;;;;;;11.40;8.35;;;;;;;22.10;100.00;101588.97;5021910;28;20037;-64
2021/07/19 06:58:34;;;;;;;12.60;8.23;;;;;;;22.57;100.00;101586.72;5023192;28;20345;-65
2021/07/19 07:01:03;;;;;;;13.98;8.63;;;;;;;22.44;100.00;101593.13;5019775;28;20041;-64
2021/07/19 07:03:31;;;;;;;19.20;8.73;;;;;;;22.37;100.00;101592.34;5024909;28;20038;-64
2021/07/19 07:06:19;;;;;;;14.07;8.45;;;;;;;22.74;100.00;101610.59;5028928;28;20076;-64
2021/07/19 07:08:47;;;;;;;12.65;7.80;;;;;;;23.27;100.00;101606.50;5023639;28;20052;-65
2021/07/19 07:11:15;;;;;;;14.43;8.13;;;;;;;22.94;100.00;101600.34;5025555;28;20053;-65
2021/07/19 07:13:44;;;;;;;12.20;7.53;;;;;;;23.29;100.00;101607.94;5019027;28;20362;-64
2021/07/19 07:16:12;;;;;;;12.10;7.90;;;;;;;23.40;100.00;101602.75;5023029;28;20096;-65
2021/07/19 07:18:40;;;;;;;13.05;8.88;;;;;;;23.10;100.00;101600.78;5021282;28;20050;-65
2021/07/19 07:21:08;;;;;;;15.05;7.72;;;;;;;22.85;100.00;101607.13;5020833;28;20053;-64
2021/07/19 07:23:36;;;;;;;13.18;7.82;;;;;;;23.08;100.00;101609.19;5019012;28;20512;-65
2021/07/19 07:26:04;;;;;;;10.93;7.35;;;;;;;23.87;100.00;101611.97;5029016;28;20056;-66
2021/07/19 07:28:32;;;;;;;14.60;7.40;;;;;;;22.62;100.00;101611.34;5026216;28;20070;-66
2021/07/19 07:31:01;;;;;;;11.35;7.45;;;;;;;22.64;100.00;101613.84;5018321;28;20056;-66
2021/07/19 07:33:29;;;;;;;11.38;7.10;;;;;;;22.48;100.00;101613.38;5021010;28;20038;-65
2021/07/19 07:35:57;;;;;;;14.25;7.63;;;;;;;22.15;100.00;101608.19;5014394;28;20065;-64
2021/07/19 07:38:25;;;;;;;13.80;8.25;;;;;;;22.15;100.00;101619.06;5023082;28;20376;-64
2021/07/19 07:40:53;;;;;;;12.88;7.45;;;;;;;22.11;100.00;101612.41;5018784;28;20044;-65
2021/07/19 07:43:20;;;;;;;14.95;8.10;;;;;;;23.98;100.00;101610.31;5022449;28;20049;-65
2021/07/19 07:45:49;;;;;;;9.68;6.50;;;;;;;24.16;100.00;101608.59;5024836;28;20053;-65
2021/07/19 07:48:19;;;;;;;11.40;7.07;;;;;;;24.25;100.00;101607.16;5022352;28;20338;-64
2021/07/19 07:50:48;;;;;;;11.88;6.95;;;;;;;24.16;100.00;101608.59;5018084;28;20103;-64
2021/07/19 07:53:16;;;;;;;11.88;7.07;;;;;;;24.87;100.00;101603.16;5016218;28;20038;-65
2021/07/19 07:55:43;;;;;;;15.50;7.82;;;;;;;24.57;100.00;101598.66;5020452;28;20095;-65
2021/07/19 07:58:11;;;;;;;11.45;6.72;;;;;;;24.18;100.00;101603.72;5022195;28;20053;-65
2021/07/19 08:00:39;;;;;;;9.48;6.05;;;;;;;24.27;100.00;101607.78;5015166;28;20053;-66
2021/07/19 08:03:07;;;;;;;10.70;5.75;;;;;;;24.54;100.00;101602.69;5020142;28;20058;-65
2021/07/19 08:05:37;;;;;;;8.35;5.93;;;;;;;23.63;100.00;101600.13;5021360;28;20045;-65
2021/07/19 08:08:05;;;;;;;9.63;6.93;;;;;;;24.56;100.00;101599.72;5025539;28;20052;-65
2021/07/19 08:10:33;;;;;;;9.82;5.78;;;;;;;25.16;100.00;101597.72;5022436;28;20048;-65
2021/07/19 08:13:01;;;;;;;13.23;6.20;;;;;;;25.30;100.00;101599.09;5015704;28;20038;-65
2021/07/19 08:15:30;;;;;;;11.20;6.47;;;;;;;24.22;100.00;101596.72;5021156;28;20038;-65
2021/07/19 08:17:57;;;;;;;10.88;6.70;;;;;;;24.72;100.00;101596.28;5017672;28;20391;-66
2021/07/19 08:20:25;;;;;;;9.93;6.03;;;;;;;23.95;100.00;101597.16;5018689;28;20053;-65
2021/07/19 08:22:55;;;;;;;8.15;5.55;;;;;;;25.01;100.00;101590.88;5018524;28;20311;-65
2021/07/19 08:25:22;;;;;;;10.88;6.38;;;;;;;25.73;100.00;101588.72;5017581;28;20483;-65
2021/07/19 08:27:50;;;;;;;10.32;5.80;;;;;;;23.66;100.00;101590.63;5025169;28;20103;-66
2021/07/19 08:30:19;;;;;;;10.43;5.57;;;;;;;24.48;100.00;101587.25;5020300;28;20107;-65
2021/07/19 08:32:47;;;;;;;9.18;5.65;;;;;;;25.51;100.00;101583.97;5021032;28;20048;-65
2021/07/19 08:35:15;;;;;;;8.30;6.28;;;;;;;25.22;100.00;101583.09;5021278;28;20260;-65
2021/07/19 08:37:45;;;;;;;10.45;6.20;;;;;;;24.51;100.00;101578.59;5020176;28;20341;-65
2021/07/19 08:40:17;;;;;;;7.70;5.97;;;;;;;25.36;100.00;101589.13;5022009;28;20103;-65
2021/07/19 08:42:45;;;;;;;8.90;6.00;;;;;;;25.09;100.00;101590.50;5016677;28;20041;-65
2021/07/19 08:45:14;;;;;;;8.38;4.82;;;;;;;25.62;100.00;101582.25;5024593;28;20041;-65
2021/07/19 08:47:45;;;;;;;8.70;4.72;;;;;;;25.97;100.00;101581.22;5022278;28;20049;-65
2021/07/19 08:50:15;;;;;;;9.32;5.63;;;;;;;25.91;100.00;101584.94;5021551;28;20049;-65
2021/07/19 08:52:47;;;;;;;9.73;4.65;;;;;;;26.67;100.00;101587.22;5017568;28;20046;-65
2021/07/19 08:55:17;;;;;;;11.00;5.45;;;;;;;26.93;100.00;101585.66;5018686;28;20037;-65
2021/07/19 08:57:49;;;;;;;11.05;6.38;;;;;;;25.85;100.00;101586.75;5020234;28;20413;-66
2021/07/19 09:00:18;;;;;;;8.55;4.90;;;;;;;26.50;100.00;101575.50;5022661;28;20104;-65
2021/07/19 09:02:47;;;;;;;7.93;5.82;;;;;;;27.35;100.00;101569.75;5022408;28;20038;-65
2021/07/19 09:05:15;;;;;;;7.32;5.35;;;;;;;27.14;100.00;101574.97;5020636;28;20388;-65
2021/07/19 09:07:43;;;;;;;6.97;4.88;;;;;;;26.11;100.00;101566.16;5022913;28;20049;-65
2021/07/19 09:10:12;;;;;;;8.50;5.53;;;;;;;26.40;100.00;101562.47;5024907;28;20383;-65
2021/07/19 09:12:44;;;;;;;7.93;5.70;;;;;;;26.34;100.00;101572.53;5020001;28;20041;-64
2021/07/19 09:15:15;;;;;;;7.10;5.50;;;;;;;26.60;100.00;101572.88;5019605;28;20038;-64
2021/07/19 09:17:43;;;;;;;10.52;5.38;;;;;;;26.24;100.00;101567.72;5022185;28;20100;-65
2021/07/19 09:20:15;;;;;;;9.68;5.60;;;;;;;26.41;100.00;101573.19;5020018;28;20057;-65
2021/07/19 09:22:43;;;;;;;10.00;5.20;;;;;;;27.72;100.00;101561.59;5015191;28;20038;-65
2021/07/19 09:25:14;;;;;;;9.48;5.78;;;;;;;27.90;100.00;101563.13;5020664;28;20421;-64
2021/07/19 09:27:53;;;;;;;8.45;5.35;;;;;;;27.92;100.00;101569.19;5018447;28;20440;-65
2021/07/19 09:30:23;;;;;;;10.50;5.35;;;;;;;27.17;100.00;101568.16;5017247;28;20046;-65
2021/07/19 09:32:53;;;;;;;8.07;5.63;;;;;;;27.30;100.00;101560.34;5016492;28;20052;-65
2021/07/19 09:35:21;;;;;;;11.60;5.70;;;;;;;26.82;100.00;101572.09;5016248;28;20371;-66
2021/07/19 09:37:52;;;;;;;8.85;5.75;;;;;;;26.48;100.00;101564.75;5018374;28;20125;-65
2021/07/19 09:40:27;;;;;;;9.88;5.25;;;;;;;25.78;100.00;101567.75;5031675;28;20045;-65
2021/07/19 09:42:57;;;;;;;10.35;5.38;;;;;;;27.10;100.00;101568.34;5020413;28;20373;-65
2021/07/19 09:45:33;;;;;;;7.45;5.32;;;;;;;26.84;100.00;101556.25;5022943;28;20400;-65
2021/07/19 09:48:06;;;;;;;7.90;5.45;;;;;;;26.20;100.00;101558.34;5017486;28;20042;-65
2021/07/19 09:50:50;;;;;;;7.38;4.93;;;;;;;26.11;100.00;101552.47;5017919;28;20483;-65
2021/07/19 09:53:28;;;;;;;7.80;5.15;;;;;;;26.16;100.00;101559.13;5018790;28;20045;-65
2021/07/19 09:56:07;;;;;;;8.70;5.70;;;;;;;26.85;100.00;101560.63;5012798;28;20495;-64
2021/07/19 09:58:36;;;;;;;9.95;5.72;;;;;;;26.96;100.00;101557.78;5016714;28;20057;-65
2021/07/19 10:01:04;;;;;;;10.30;5.40;;;;;;;27.80;100.00;101555.66;5014523;28;20116;-65
2021/07/19 10:03:33;;;;;;;9.50;6.72;;;;;;;27.42;100.00;101562.97;5016422;28;20359;-65
2021/07/19 10:06:05;;;;;;;10.23;5.00;;;;;;;28.16;100.00;101564.19;5018961;28;20069;-65
2021/07/19 10:08:33;;;;;;;10.07;5.53;;;;;;;27.79;100.00;101553.16;5018633;28;20045;-65
2021/07/19 10:11:01;;;;;;;7.30;5.00;;;;;;;27.34;100.00;101548.88;5018177;28;20045;-65
2021/07/19 10:13:33;;;;;;;9.38;5.75;;;;;;;27.11;100.00;101559.03;5017987;28;20449;-64
2021/07/19 10:16:03;;;;;;;8.50;5.43;;;;;;;26.25;100.00;101552.97;5020663;28;20107;-65
2021/07/19 10:18:33;;;;;;;8.13;5.55;;;;;;;27.47;100.00;101545.72;5016807;28;20053;-65
2021/07/19 10:21:03;;;;;;;6.82;5.45;;;;;;;27.76;100.00;101557.25;5015302;28;20045;-65
2021/07/19 10:23:31;;;;;;;8.82;4.20;;;;;;;27.79;100.00;101548.50;5022941;28;20103;-65
2021/07/19 10:25:59;;;;;;;7.60;3.83;;;;;;;28.60;100.00;101554.81;5020245;28;20167;-65
2021/07/19 10:28:27;;;;;;;10.30;4.70;;;;;;;27.80;100.00;101554.78;5030981;28;20096;-67
2021/07/19 10:30:56;;;;;;;5.72;4.03;;;;;;;27.42;100.00;101554.75;5020245;28;20060;-65
2021/07/19 10:33:28;;;;;;;8.98;4.75;;;;;;;26.16;100.00;101561.84;5017520;28;20034;-67
2021/07/19 10:35:58;;;;;;;8.20;5.30;;;;;;;27.25;100.00;101564.97;5022979;28;20383;-65
2021/07/19 10:38:29;;;;;;;8.48;5.25;;;;;;;27.76;100.00;101560.00;5019946;28;20060;-65
2021/07/19 10:40:59;;;;;;;7.88;4.50;;;;;;;28.57;100.00;101558.13;5019679;28;20049;-65
2021/07/19 10:43:29;;;;;;;8.77;5.07;;;;;;;27.01;100.00;101556.19;5021122;28;20072;-64
2021/07/19 10:46:08;;;;;;;9.60;5.40;;;;;;;27.07;100.00;101555.16;5019021;28;20030;-65
2021/07/19 10:48:37;;;;;;;6.63;4.75;;;;;;;27.14;100.00;101550.31;5019643;28;20089;-65
2021/07/19 10:51:17;;;;;;;9.82;4.65;;;;;;;29.23;100.00;101547.66;5024173;28;20053;-65
2021/07/19 10:53:45;;;;;;;8.30;5.80;;;;;;;29.22;100.00;101549.59;5016560;28;20096;-65
2021/07/19 10:56:14;;;;;;;12.95;5.00;;;;;;;30.04;100.00;101552.47;5020762;28;20443;-65
2021/07/19 10:58:48;;;;;;;13.85;5.78;;;;;;;29.23;100.00;101550.41;5018915;28;20053;-65
2021/07/19 11:01:20;;;;;;;7.53;5.65;;;;;;;28.16;100.00;101555.94;5019216;28;20310;-65
2021/07/19 11:03:51;;;;;;;8.45;4.80;;;;;;;27.83;100.00;101544.13;5016728;28;20045;-64
2021/07/19 11:06:31;;;;;;;6.55;4.50;;;;;;;28.00;100.00;101543.22;5015072;28;20440;-66
2021/07/19 11:08:59;;;;;;;7.43;3.80;;;;;;;28.76;100.00;101538.44;5024627;28;20060;-65
2021/07/19 11:11:28;;;;;;;7.63;3.85;;;;;;;27.63;100.00;101538.50;5021662;28;20049;-65
2021/07/19 11:13:58;;;;;;;6.28;4.72;;;;;;;27.44;100.00;101527.88;5021107;28;20077;-65
2021/07/19 11:16:27;;;;;;;8.35;4.72;;;;;;;28.81;100.00;101533.78;5020211;28;20067;-65
2021/07/19 11:19:01;;;;;;;10.20;5.78;;;;;;;28.00;100.00;101518.50;5018640;28;20312;-65
2021/07/19 11:21:33;;;;;;;8.98;5.72;;;;;;;27.49;100.00;101514.22;5018489;28;20065;-65